sensor_id;sensor_type;location;lat;lon;timestamp;P1;durP1;ratioP1;P2;durP2;ratioP2
41799;SDS011;27468;47.460;19.034;2022-10-16T00:01:21;16.75;;;9.88;;
41799;SDS011;27468;47.460;19.034;2022-10-16T00:03:49;13.95;;;8.20;;
41799;SDS011;27468;47.460;19.034;2022-10-16T00:06:16;11.50;;;8.40;;
41799;SDS011;27468;47.460;19.034;2022-10-16T00:08:43;13.48;;;8.15;;
41799;SDS011;27468;47.460;19.034;2022-10-16T00:11:10;13.48;;;8.70;;
41799;SDS011;27468;47.460;19.034;2022-10-16T00:13:38;11.40;;;8.07;;
41799;SDS011;27468;47.460;19.034;2022-10-16T00:16:04;11.27;;;7.60;;
41799;SDS011;27468;47.460;19.034;2022-10-16T00:18:30;12.05;;;8.45;;
41799;SDS011;27468;47.460;19.034;2022-10-16T00:21:01;10.27;;;7.82;;
41799;SDS011;27468;47.460;19.034;2022-10-16T00:25:54;11.77;;;7.55;;
41799;SDS011;27468;47.460;19.034;2022-10-16T00:28:24;10.43;;;7.85;;
41799;SDS011;27468;47.460;19.034;2022-10-16T00:30:49;10.82;;;7.53;;
41799;SDS011;27468;47.460;19.034;2022-10-16T00:33:15;10.05;;;7.72;;
41799;SDS011;27468;47.460;19.034;2022-10-16T00:35:41;8.65;;;6.90;;
41799;SDS011;27468;47.460;19.034;2022-10-16T00:38:06;12.98;;;8.15;;
41799;SDS011;27468;47.460;19.034;2022-10-16T00:40:31;12.88;;;8.93;;
41799;SDS011;27468;47.460;19.034;2022-10-16T00:42:57;11.48;;;7.63;;
41799;SDS011;27468;47.460;19.034;2022-10-16T00:45:22;9.93;;;7.38;;
41799;SDS011;27468;47.460;19.034;2022-10-16T00:47:48;12.07;;;8.65;;
41799;SDS011;27468;47.460;19.034;2022-10-16T00:50:24;11.93;;;7.97;;
41799;SDS011;27468;47.460;19.034;2022-10-16T00:52:54;11.02;;;7.57;;
41799;SDS011;27468;47.460;19.034;2022-10-16T00:55:20;8.75;;;7.03;;
41799;SDS011;27468;47.460;19.034;2022-10-16T00:57:47;10.15;;;7.25;;
41799;SDS011;27468;47.460;19.034;2022-10-16T01:00:16;10.05;;;7.55;;
41799;SDS011;27468;47.460;19.034;2022-10-16T01:02:44;9.27;;;7.68;;
41799;SDS011;27468;47.460;19.034;2022-10-16T01:05:09;8.85;;;7.45;;
41799;SDS011;27468;47.460;19.034;2022-10-16T01:12:59;11.63;;;7.22;;
41799;SDS011;27468;47.460;19.034;2022-10-16T01:15:31;11.63;;;7.47;;
41799;SDS011;27468;47.460;19.034;2022-10-16T01:18:04;12.35;;;7.00;;
41799;SDS011;27468;47.460;19.034;2022-10-16T01:20:39;9.88;;;7.28;;
41799;SDS011;27468;47.460;19.034;2022-10-16T01:28:54;10.80;;;7.93;;
41799;SDS011;27468;47.460;19.034;2022-10-16T01:31:23;12.60;;;8.55;;
41799;SDS011;27468;47.460;19.034;2022-10-16T01:34:14;9.75;;;8.38;;
41799;SDS011;27468;47.460;19.034;2022-10-16T01:37:27;13.27;;;8.70;;
41799;SDS011;27468;47.460;19.034;2022-10-16T01:39:30;11.77;;;8.35;;
41799;SDS011;27468;47.460;19.034;2022-10-16T01:42:11;12.35;;;8.43;;
41799;SDS011;27468;47.460;19.034;2022-10-16T01:44:40;13.10;;;8.90;;
41799;SDS011;27468;47.460;19.034;2022-10-16T01:47:08;12.82;;;8.80;;
41799;SDS011;27468;47.460;19.034;2022-10-16T01:49:36;12.38;;;8.80;;
41799;SDS011;27468;47.460;19.034;2022-10-16T01:52:05;11.38;;;9.10;;
41799;SDS011;27468;47.460;19.034;2022-10-16T01:54:34;11.95;;;9.07;;
41799;SDS011;27468;47.460;19.034;2022-10-16T01:57:02;14.07;;;9.32;;
41799;SDS011;27468;47.460;19.034;2022-10-16T01:59:31;13.05;;;8.98;;
41799;SDS011;27468;47.460;19.034;2022-10-16T02:02:03;14.52;;;9.90;;
41799;SDS011;27468;47.460;19.034;2022-10-16T02:04:34;14.05;;;9.48;;
41799;SDS011;27468;47.460;19.034;2022-10-16T02:07:01;14.90;;;9.95;;
41799;SDS011;27468;47.460;19.034;2022-10-16T02:09:27;13.52;;;9.85;;
41799;SDS011;27468;47.460;19.034;2022-10-16T02:11:54;15.35;;;10.70;;
41799;SDS011;27468;47.460;19.034;2022-10-16T02:14:22;14.20;;;10.65;;
41799;SDS011;27468;47.460;19.034;2022-10-16T02:16:49;14.18;;;10.20;;
41799;SDS011;27468;47.460;19.034;2022-10-16T02:19:15;13.82;;;10.32;;
41799;SDS011;27468;47.460;19.034;2022-10-16T02:22:00;14.20;;;10.55;;
41799;SDS011;27468;47.460;19.034;2022-10-16T02:24:51;14.85;;;10.68;;
41799;SDS011;27468;47.460;19.034;2022-10-16T02:33:03;16.60;;;11.60;;
41799;SDS011;27468;47.460;19.034;2022-10-16T02:35:32;14.80;;;10.43;;
41799;SDS011;27468;47.460;19.034;2022-10-16T02:37:59;17.10;;;10.77;;
41799;SDS011;27468;47.460;19.034;2022-10-16T02:40:24;15.25;;;10.82;;
41799;SDS011;27468;47.460;19.034;2022-10-16T02:42:51;16.98;;;11.18;;
41799;SDS011;27468;47.460;19.034;2022-10-16T02:45:18;15.85;;;10.75;;
41799;SDS011;27468;47.460;19.034;2022-10-16T02:47:45;15.65;;;11.23;;
41799;SDS011;27468;47.460;19.034;2022-10-16T02:50:10;17.20;;;12.18;;
41799;SDS011;27468;47.460;19.034;2022-10-16T02:52:35;16.42;;;11.43;;
41799;SDS011;27468;47.460;19.034;2022-10-16T02:55:01;17.63;;;11.07;;
41799;SDS011;27468;47.460;19.034;2022-10-16T02:57:27;15.57;;;11.20;;
41799;SDS011;27468;47.460;19.034;2022-10-16T02:59:52;17.27;;;11.60;;
41799;SDS011;27468;47.460;19.034;2022-10-16T03:02:18;16.92;;;11.27;;
41799;SDS011;27468;47.460;19.034;2022-10-16T03:04:43;17.65;;;11.38;;
41799;SDS011;27468;47.460;19.034;2022-10-16T03:07:09;16.30;;;11.70;;
41799;SDS011;27468;47.460;19.034;2022-10-16T03:09:34;16.75;;;11.68;;
41799;SDS011;27468;47.460;19.034;2022-10-16T03:11:59;16.23;;;11.35;;
41799;SDS011;27468;47.460;19.034;2022-10-16T03:14:25;17.02;;;11.90;;
41799;SDS011;27468;47.460;19.034;2022-10-16T03:16:51;19.30;;;12.07;;
41799;SDS011;27468;47.460;19.034;2022-10-16T03:19:16;17.58;;;12.07;;
41799;SDS011;27468;47.460;19.034;2022-10-16T03:21:42;20.67;;;12.25;;
41799;SDS011;27468;47.460;19.034;2022-10-16T03:24:08;18.23;;;12.10;;
41799;SDS011;27468;47.460;19.034;2022-10-16T03:26:33;18.40;;;12.57;;
41799;SDS011;27468;47.460;19.034;2022-10-16T03:28:59;20.75;;;12.85;;
41799;SDS011;27468;47.460;19.034;2022-10-16T03:31:24;18.48;;;12.48;;
41799;SDS011;27468;47.460;19.034;2022-10-16T03:33:49;18.17;;;12.23;;
41799;SDS011;27468;47.460;19.034;2022-10-16T03:36:15;18.40;;;12.60;;
41799;SDS011;27468;47.460;19.034;2022-10-16T03:38:40;19.77;;;11.90;;
41799;SDS011;27468;47.460;19.034;2022-10-16T03:41:06;17.75;;;12.18;;
41799;SDS011;27468;47.460;19.034;2022-10-16T03:43:32;18.63;;;11.98;;
41799;SDS011;27468;47.460;19.034;2022-10-16T03:45:58;19.30;;;12.80;;
41799;SDS011;27468;47.460;19.034;2022-10-16T03:48:23;17.92;;;12.48;;
41799;SDS011;27468;47.460;19.034;2022-10-16T03:50:49;20.70;;;12.23;;
41799;SDS011;27468;47.460;19.034;2022-10-16T03:53:15;19.02;;;11.93;;
41799;SDS011;27468;47.460;19.034;2022-10-16T03:55:44;19.67;;;11.45;;
41799;SDS011;27468;47.460;19.034;2022-10-16T03:58:10;18.52;;;12.02;;
41799;SDS011;27468;47.460;19.034;2022-10-16T04:00:39;20.92;;;12.73;;
41799;SDS011;27468;47.460;19.034;2022-10-16T04:03:08;19.67;;;12.73;;
41799;SDS011;27468;47.460;19.034;2022-10-16T04:05:33;19.42;;;12.52;;
41799;SDS011;27468;47.460;19.034;2022-10-16T04:07:59;19.15;;;12.70;;
41799;SDS011;27468;47.460;19.034;2022-10-16T04:10:24;21.40;;;12.68;;
41799;SDS011;27468;47.460;19.034;2022-10-16T04:12:50;19.67;;;11.98;;
41799;SDS011;27468;47.460;19.034;2022-10-16T04:15:15;17.95;;;12.07;;
41799;SDS011;27468;47.460;19.034;2022-10-16T04:17:41;18.55;;;11.80;;
41799;SDS011;27468;47.460;19.034;2022-10-16T04:20:06;19.55;;;12.73;;
41799;SDS011;27468;47.460;19.034;2022-10-16T04:22:32;19.58;;;12.30;;
41799;SDS011;27468;47.460;19.034;2022-10-16T04:24:57;20.10;;;12.65;;
41799;SDS011;27468;47.460;19.034;2022-10-16T04:27:22;16.83;;;11.25;;
41799;SDS011;27468;47.460;19.034;2022-10-16T04:29:48;18.58;;;12.38;;
41799;SDS011;27468;47.460;19.034;2022-10-16T04:32:13;20.27;;;11.98;;
41799;SDS011;27468;47.460;19.034;2022-10-16T04:34:39;19.33;;;12.35;;
41799;SDS011;27468;47.460;19.034;2022-10-16T04:37:05;19.55;;;13.00;;
41799;SDS011;27468;47.460;19.034;2022-10-16T04:39:30;19.13;;;12.50;;
41799;SDS011;27468;47.460;19.034;2022-10-16T04:41:56;20.75;;;12.35;;
41799;SDS011;27468;47.460;19.034;2022-10-16T04:44:21;19.48;;;12.38;;
41799;SDS011;27468;47.460;19.034;2022-10-16T04:46:47;19.33;;;12.05;;
41799;SDS011;27468;47.460;19.034;2022-10-16T04:49:12;19.23;;;11.88;;
41799;SDS011;27468;47.460;19.034;2022-10-16T04:51:37;20.20;;;12.80;;
41799;SDS011;27468;47.460;19.034;2022-10-16T04:54:03;16.65;;;11.82;;
41799;SDS011;27468;47.460;19.034;2022-10-16T04:56:28;19.53;;;12.30;;
41799;SDS011;27468;47.460;19.034;2022-10-16T04:58:53;19.52;;;12.40;;
41799;SDS011;27468;47.460;19.034;2022-10-16T05:01:19;19.20;;;12.48;;
41799;SDS011;27468;47.460;19.034;2022-10-16T05:03:44;19.67;;;12.27;;
41799;SDS011;27468;47.460;19.034;2022-10-16T05:06:10;18.20;;;12.23;;
41799;SDS011;27468;47.460;19.034;2022-10-16T05:08:36;20.17;;;13.20;;
41799;SDS011;27468;47.460;19.034;2022-10-16T05:11:01;21.98;;;13.07;;
41799;SDS011;27468;47.460;19.034;2022-10-16T05:13:27;21.55;;;13.23;;
41799;SDS011;27468;47.460;19.034;2022-10-16T05:15:52;19.88;;;13.18;;
41799;SDS011;27468;47.460;19.034;2022-10-16T05:18:17;20.48;;;13.05;;
41799;SDS011;27468;47.460;19.034;2022-10-16T05:20:43;18.75;;;12.63;;
41799;SDS011;27468;47.460;19.034;2022-10-16T05:23:15;19.38;;;13.25;;
41799;SDS011;27468;47.460;19.034;2022-10-16T05:25:43;18.17;;;12.60;;
41799;SDS011;27468;47.460;19.034;2022-10-16T05:28:17;19.60;;;12.68;;
41799;SDS011;27468;47.460;19.034;2022-10-16T05:30:42;21.77;;;13.90;;
41799;SDS011;27468;47.460;19.034;2022-10-16T05:33:08;18.92;;;12.40;;
41799;SDS011;27468;47.460;19.034;2022-10-16T05:35:33;22.55;;;13.38;;
41799;SDS011;27468;47.460;19.034;2022-10-16T05:37:59;18.83;;;12.20;;
41799;SDS011;27468;47.460;19.034;2022-10-16T05:40:24;21.75;;;13.77;;
41799;SDS011;27468;47.460;19.034;2022-10-16T05:42:50;23.05;;;14.18;;
41799;SDS011;27468;47.460;19.034;2022-10-16T05:45:20;21.42;;;13.93;;
41799;SDS011;27468;47.460;19.034;2022-10-16T05:47:45;22.77;;;13.50;;
41799;SDS011;27468;47.460;19.034;2022-10-16T05:50:10;20.40;;;12.60;;
41799;SDS011;27468;47.460;19.034;2022-10-16T05:52:36;20.17;;;12.98;;
41799;SDS011;27468;47.460;19.034;2022-10-16T05:55:01;20.10;;;13.00;;
41799;SDS011;27468;47.460;19.034;2022-10-16T05:57:27;20.52;;;12.75;;
41799;SDS011;27468;47.460;19.034;2022-10-16T05:59:53;18.38;;;12.88;;
41799;SDS011;27468;47.460;19.034;2022-10-16T06:02:18;21.02;;;12.70;;
41799;SDS011;27468;47.460;19.034;2022-10-16T06:04:43;20.08;;;12.75;;
41799;SDS011;27468;47.460;19.034;2022-10-16T06:07:09;22.10;;;13.43;;
41799;SDS011;27468;47.460;19.034;2022-10-16T06:09:34;20.08;;;12.88;;
41799;SDS011;27468;47.460;19.034;2022-10-16T06:12:00;19.27;;;13.00;;
41799;SDS011;27468;47.460;19.034;2022-10-16T06:14:25;22.08;;;12.85;;
41799;SDS011;27468;47.460;19.034;2022-10-16T06:16:51;18.38;;;12.13;;
41799;SDS011;27468;47.460;19.034;2022-10-16T06:19:16;15.77;;;11.23;;
41799;SDS011;27468;47.460;19.034;2022-10-16T06:21:42;16.20;;;10.07;;
41799;SDS011;27468;47.460;19.034;2022-10-16T06:24:08;14.93;;;9.45;;
41799;SDS011;27468;47.460;19.034;2022-10-16T06:26:33;15.65;;;10.07;;
41799;SDS011;27468;47.460;19.034;2022-10-16T06:28:59;13.32;;;9.90;;
41799;SDS011;27468;47.460;19.034;2022-10-16T06:31:25;13.32;;;9.05;;
41799;SDS011;27468;47.460;19.034;2022-10-16T06:33:52;13.70;;;8.68;;
41799;SDS011;27468;47.460;19.034;2022-10-16T06:36:19;15.05;;;9.73;;
41799;SDS011;27468;47.460;19.034;2022-10-16T06:38:45;13.60;;;9.30;;
41799;SDS011;27468;47.460;19.034;2022-10-16T06:41:14;13.63;;;8.85;;
41799;SDS011;27468;47.460;19.034;2022-10-16T06:43:41;12.55;;;8.73;;
41799;SDS011;27468;47.460;19.034;2022-10-16T06:46:09;15.77;;;8.63;;
41799;SDS011;27468;47.460;19.034;2022-10-16T06:48:35;12.57;;;8.70;;
41799;SDS011;27468;47.460;19.034;2022-10-16T06:51:17;12.63;;;9.48;;
41799;SDS011;27468;47.460;19.034;2022-10-16T06:53:45;12.77;;;8.23;;
41799;SDS011;27468;47.460;19.034;2022-10-16T06:56:15;11.13;;;8.07;;
41799;SDS011;27468;47.460;19.034;2022-10-16T06:58:45;11.90;;;8.00;;
41799;SDS011;27468;47.460;19.034;2022-10-16T07:01:12;11.02;;;7.90;;
41799;SDS011;27468;47.460;19.034;2022-10-16T07:03:45;11.23;;;7.80;;
41799;SDS011;27468;47.460;19.034;2022-10-16T07:06:12;10.98;;;7.72;;
41799;SDS011;27468;47.460;19.034;2022-10-16T07:08:40;13.27;;;8.60;;
41799;SDS011;27468;47.460;19.034;2022-10-16T07:11:07;12.13;;;8.25;;
41799;SDS011;27468;47.460;19.034;2022-10-16T07:13:35;13.32;;;7.97;;
41799;SDS011;27468;47.460;19.034;2022-10-16T07:16:34;13.57;;;7.78;;
41799;SDS011;27468;47.460;19.034;2022-10-16T07:18:54;11.05;;;8.27;;
41799;SDS011;27468;47.460;19.034;2022-10-16T07:21:29;11.35;;;7.82;;
41799;SDS011;27468;47.460;19.034;2022-10-16T07:24:00;11.57;;;7.80;;
41799;SDS011;27468;47.460;19.034;2022-10-16T07:26:27;13.13;;;7.78;;
41799;SDS011;27468;47.460;19.034;2022-10-16T07:28:55;12.20;;;7.68;;
41799;SDS011;27468;47.460;19.034;2022-10-16T07:31:21;11.27;;;7.97;;
41799;SDS011;27468;47.460;19.034;2022-10-16T07:33:47;12.43;;;8.32;;
41799;SDS011;27468;47.460;19.034;2022-10-16T07:36:14;11.00;;;7.47;;
41799;SDS011;27468;47.460;19.034;2022-10-16T07:38:40;12.60;;;7.65;;
41799;SDS011;27468;47.460;19.034;2022-10-16T07:41:08;10.15;;;7.82;;
41799;SDS011;27468;47.460;19.034;2022-10-16T07:43:35;11.93;;;7.93;;
41799;SDS011;27468;47.460;19.034;2022-10-16T07:46:01;10.90;;;8.10;;
41799;SDS011;27468;47.460;19.034;2022-10-16T07:54:10;10.98;;;7.45;;
41799;SDS011;27468;47.460;19.034;2022-10-16T07:56:35;12.32;;;8.55;;
41799;SDS011;27468;47.460;19.034;2022-10-16T07:59:01;12.20;;;7.95;;
41799;SDS011;27468;47.460;19.034;2022-10-16T08:01:26;12.35;;;8.30;;
41799;SDS011;27468;47.460;19.034;2022-10-16T08:03:52;11.75;;;7.80;;
41799;SDS011;27468;47.460;19.034;2022-10-16T08:06:18;11.30;;;8.18;;
41799;SDS011;27468;47.460;19.034;2022-10-16T08:08:45;12.00;;;8.07;;
41799;SDS011;27468;47.460;19.034;2022-10-16T08:11:11;10.93;;;7.32;;
41799;SDS011;27468;47.460;19.034;2022-10-16T08:13:36;10.82;;;7.85;;
41799;SDS011;27468;47.460;19.034;2022-10-16T08:16:02;12.13;;;8.20;;
41799;SDS011;27468;47.460;19.034;2022-10-16T08:18:32;14.95;;;8.07;;
41799;SDS011;27468;47.460;19.034;2022-10-16T08:20:59;12.13;;;8.05;;
41799;SDS011;27468;47.460;19.034;2022-10-16T08:23:25;12.63;;;8.00;;
41799;SDS011;27468;47.460;19.034;2022-10-16T08:25:54;10.00;;;7.90;;
41799;SDS011;27468;47.460;19.034;2022-10-16T08:28:21;14.38;;;8.48;;
41799;SDS011;27468;47.460;19.034;2022-10-16T08:30:47;12.45;;;8.10;;
41799;SDS011;27468;47.460;19.034;2022-10-16T08:33:12;12.05;;;8.52;;
41799;SDS011;27468;47.460;19.034;2022-10-16T08:35:38;11.40;;;7.82;;
41799;SDS011;27468;47.460;19.034;2022-10-16T08:38:04;13.00;;;8.00;;
41799;SDS011;27468;47.460;19.034;2022-10-16T08:40:31;13.57;;;8.73;;
41799;SDS011;27468;47.460;19.034;2022-10-16T08:45:49;12.30;;;8.35;;
41799;SDS011;27468;47.460;19.034;2022-10-16T08:50:54;11.20;;;7.97;;
41799;SDS011;27468;47.460;19.034;2022-10-16T08:53:35;10.90;;;7.95;;
41799;SDS011;27468;47.460;19.034;2022-10-16T08:56:07;10.85;;;7.93;;
41799;SDS011;27468;47.460;19.034;2022-10-16T08:58:33;9.90;;;7.82;;
41799;SDS011;27468;47.460;19.034;2022-10-16T09:01:00;12.57;;;7.90;;
41799;SDS011;27468;47.460;19.034;2022-10-16T09:25:43;11.75;;;8.50;;
41799;SDS011;27468;47.460;19.034;2022-10-16T09:28:12;10.73;;;8.35;;
41799;SDS011;27468;47.460;19.034;2022-10-16T09:30:38;11.15;;;7.95;;
41799;SDS011;27468;47.460;19.034;2022-10-16T09:33:04;10.38;;;7.93;;
41799;SDS011;27468;47.460;19.034;2022-10-16T09:35:33;11.40;;;7.85;;
41799;SDS011;27468;47.460;19.034;2022-10-16T09:38:02;11.43;;;7.65;;
41799;SDS011;27468;47.460;19.034;2022-10-16T09:40:31;10.95;;;7.65;;
41799;SDS011;27468;47.460;19.034;2022-10-16T09:45:42;10.93;;;7.38;;
41799;SDS011;27468;47.460;19.034;2022-10-16T09:48:12;10.05;;;7.20;;
41799;SDS011;27468;47.460;19.034;2022-10-16T09:50:54;12.73;;;7.65;;
41799;SDS011;27468;47.460;19.034;2022-10-16T09:53:21;11.88;;;8.00;;
41799;SDS011;27468;47.460;19.034;2022-10-16T09:55:48;10.60;;;8.38;;
41799;SDS011;27468;47.460;19.034;2022-10-16T09:58:15;12.15;;;7.80;;
41799;SDS011;27468;47.460;19.034;2022-10-16T10:00:41;11.73;;;8.07;;
41799;SDS011;27468;47.460;19.034;2022-10-16T10:03:15;10.30;;;7.40;;
41799;SDS011;27468;47.460;19.034;2022-10-16T10:05:58;12.48;;;8.10;;
41799;SDS011;27468;47.460;19.034;2022-10-16T10:08:23;12.13;;;8.27;;
41799;SDS011;27468;47.460;19.034;2022-10-16T10:10:49;11.13;;;7.88;;
41799;SDS011;27468;47.460;19.034;2022-10-16T10:13:21;10.30;;;7.43;;
41799;SDS011;27468;47.460;19.034;2022-10-16T10:15:49;12.07;;;7.57;;
41799;SDS011;27468;47.460;19.034;2022-10-16T10:18:19;11.70;;;7.40;;
41799;SDS011;27468;47.460;19.034;2022-10-16T10:20:59;9.35;;;7.55;;
41799;SDS011;27468;47.460;19.034;2022-10-16T10:23:27;9.13;;;6.90;;
41799;SDS011;27468;47.460;19.034;2022-10-16T10:33:59;9.35;;;6.75;;
41799;SDS011;27468;47.460;19.034;2022-10-16T10:36:39;10.07;;;6.40;;
41799;SDS011;27468;47.460;19.034;2022-10-16T10:39:08;11.35;;;7.13;;
41799;SDS011;27468;47.460;19.034;2022-10-16T10:41:55;9.07;;;6.72;;
41799;SDS011;27468;47.460;19.034;2022-10-16T10:52:43;7.43;;;5.47;;
41799;SDS011;27468;47.460;19.034;2022-10-16T11:03:20;7.70;;;5.15;;
41799;SDS011;27468;47.460;19.034;2022-10-16T11:06:50;7.78;;;6.10;;
41799;SDS011;27468;47.460;19.034;2022-10-16T11:12:03;8.50;;;5.10;;
41799;SDS011;27468;47.460;19.034;2022-10-16T11:14:35;6.10;;;5.28;;
41799;SDS011;27468;47.460;19.034;2022-10-16T11:17:08;8.25;;;4.75;;
41799;SDS011;27468;47.460;19.034;2022-10-16T11:19:46;8.68;;;4.88;;
41799;SDS011;27468;47.460;19.034;2022-10-16T11:38:21;9.40;;;5.63;;
41799;SDS011;27468;47.460;19.034;2022-10-16T11:41:10;7.20;;;5.10;;
41799;SDS011;27468;47.460;19.034;2022-10-16T11:44:06;6.83;;;5.00;;
41799;SDS011;27468;47.460;19.034;2022-10-16T11:46:42;7.72;;;4.97;;
41799;SDS011;27468;47.460;19.034;2022-10-16T11:51:56;5.63;;;4.70;;
41799;SDS011;27468;47.460;19.034;2022-10-16T11:57:11;5.55;;;4.30;;
41799;SDS011;27468;47.460;19.034;2022-10-16T11:59:55;6.43;;;4.82;;
41799;SDS011;27468;47.460;19.034;2022-10-16T12:02:55;6.95;;;4.40;;
41799;SDS011;27468;47.460;19.034;2022-10-16T12:08:20;6.00;;;3.83;;
41799;SDS011;27468;47.460;19.034;2022-10-16T12:10:47;6.47;;;4.13;;
41799;SDS011;27468;47.460;19.034;2022-10-16T12:18:38;4.72;;;3.88;;
41799;SDS011;27468;47.460;19.034;2022-10-16T12:21:08;7.43;;;4.10;;
41799;SDS011;27468;47.460;19.034;2022-10-16T12:23:45;6.88;;;4.93;;
41799;SDS011;27468;47.460;19.034;2022-10-16T12:26:13;5.60;;;4.10;;
41799;SDS011;27468;47.460;19.034;2022-10-16T12:28:38;5.65;;;4.22;;
41799;SDS011;27468;47.460;19.034;2022-10-16T12:31:06;6.18;;;4.47;;
41799;SDS011;27468;47.460;19.034;2022-10-16T12:33:41;7.50;;;4.18;;
41799;SDS011;27468;47.460;19.034;2022-10-16T12:36:29;5.07;;;4.28;;
41799;SDS011;27468;47.460;19.034;2022-10-16T12:38:57;5.82;;;3.92;;
41799;SDS011;27468;47.460;19.034;2022-10-16T12:41:30;4.90;;;4.05;;
41799;SDS011;27468;47.460;19.034;2022-10-16T12:43:59;6.57;;;4.47;;
41799;SDS011;27468;47.460;19.034;2022-10-16T12:49:21;7.63;;;4.20;;
41799;SDS011;27468;47.460;19.034;2022-10-16T12:51:42;6.97;;;4.03;;
41799;SDS011;27468;47.460;19.034;2022-10-16T13:16:09;5.10;;;3.85;;
41799;SDS011;27468;47.460;19.034;2022-10-16T13:18:46;5.97;;;4.00;;
41799;SDS011;27468;47.460;19.034;2022-10-16T13:26:44;6.22;;;4.10;;
41799;SDS011;27468;47.460;19.034;2022-10-16T13:29:17;6.20;;;4.20;;
41799;SDS011;27468;47.460;19.034;2022-10-16T13:31:43;4.38;;;3.47;;
41799;SDS011;27468;47.460;19.034;2022-10-16T13:34:12;5.70;;;4.22;;
41799;SDS011;27468;47.460;19.034;2022-10-16T13:36:45;4.88;;;3.70;;
41799;SDS011;27468;47.460;19.034;2022-10-16T13:39:19;4.95;;;3.65;;
41799;SDS011;27468;47.460;19.034;2022-10-16T13:41:57;4.47;;;3.63;;
41799;SDS011;27468;47.460;19.034;2022-10-16T13:44:43;5.75;;;3.60;;
41799;SDS011;27468;47.460;19.034;2022-10-16T13:47:22;5.35;;;3.75;;
41799;SDS011;27468;47.460;19.034;2022-10-16T13:49:59;6.63;;;4.30;;
41799;SDS011;27468;47.460;19.034;2022-10-16T13:52:25;6.32;;;4.15;;
41799;SDS011;27468;47.460;19.034;2022-10-16T13:54:51;5.78;;;3.97;;
41799;SDS011;27468;47.460;19.034;2022-10-16T13:57:17;5.05;;;3.95;;
41799;SDS011;27468;47.460;19.034;2022-10-16T13:59:42;6.00;;;4.03;;
41799;SDS011;27468;47.460;19.034;2022-10-16T14:02:30;5.75;;;3.70;;
41799;SDS011;27468;47.460;19.034;2022-10-16T14:04:56;7.53;;;4.00;;
41799;SDS011;27468;47.460;19.034;2022-10-16T14:07:27;7.13;;;3.75;;
41799;SDS011;27468;47.460;19.034;2022-10-16T14:09:55;3.97;;;3.58;;
41799;SDS011;27468;47.460;19.034;2022-10-16T14:12:22;5.35;;;4.00;;
41799;SDS011;27468;47.460;19.034;2022-10-16T14:14:49;5.63;;;3.88;;
41799;SDS011;27468;47.460;19.034;2022-10-16T14:19:48;4.65;;;3.65;;
41799;SDS011;27468;47.460;19.034;2022-10-16T14:22:24;5.07;;;3.80;;
41799;SDS011;27468;47.460;19.034;2022-10-16T14:25:08;4.97;;;3.70;;
41799;SDS011;27468;47.460;19.034;2022-10-16T14:28:14;4.95;;;3.65;;
41799;SDS011;27468;47.460;19.034;2022-10-16T14:30:58;5.45;;;3.70;;
41799;SDS011;27468;47.460;19.034;2022-10-16T14:38:34;5.63;;;3.60;;
41799;SDS011;27468;47.460;19.034;2022-10-16T14:41:00;4.70;;;3.60;;
41799;SDS011;27468;47.460;19.034;2022-10-16T14:43:29;7.55;;;4.03;;
41799;SDS011;27468;47.460;19.034;2022-10-16T14:45:59;4.40;;;3.40;;
41799;SDS011;27468;47.460;19.034;2022-10-16T14:48:26;6.55;;;3.90;;
41799;SDS011;27468;47.460;19.034;2022-10-16T14:50:52;4.40;;;3.60;;
41799;SDS011;27468;47.460;19.034;2022-10-16T14:53:17;3.95;;;3.30;;
41799;SDS011;27468;47.460;19.034;2022-10-16T14:55:43;4.35;;;3.70;;
41799;SDS011;27468;47.460;19.034;2022-10-16T15:00:47;7.75;;;4.40;;
41799;SDS011;27468;47.460;19.034;2022-10-16T15:03:13;6.18;;;3.95;;
41799;SDS011;27468;47.460;19.034;2022-10-16T15:05:39;5.82;;;4.50;;
41799;SDS011;27468;47.460;19.034;2022-10-16T15:08:05;7.50;;;4.00;;
41799;SDS011;27468;47.460;19.034;2022-10-16T15:10:30;6.28;;;4.22;;
41799;SDS011;27468;47.460;19.034;2022-10-16T15:13:00;6.05;;;4.25;;
41799;SDS011;27468;47.460;19.034;2022-10-16T15:15:33;4.35;;;3.67;;
41799;SDS011;27468;47.460;19.034;2022-10-16T15:18:16;4.80;;;4.10;;
41799;SDS011;27468;47.460;19.034;2022-10-16T15:20:45;5.97;;;4.10;;
41799;SDS011;27468;47.460;19.034;2022-10-16T15:23:15;8.00;;;3.97;;
41799;SDS011;27468;47.460;19.034;2022-10-16T15:25:52;5.78;;;4.50;;
41799;SDS011;27468;47.460;19.034;2022-10-16T15:28:20;7.28;;;4.95;;
41799;SDS011;27468;47.460;19.034;2022-10-16T15:30:48;6.25;;;4.40;;
41799;SDS011;27468;47.460;19.034;2022-10-16T15:33:17;6.40;;;4.10;;
41799;SDS011;27468;47.460;19.034;2022-10-16T15:35:51;5.65;;;4.45;;
41799;SDS011;27468;47.460;19.034;2022-10-16T15:38:17;6.13;;;4.50;;
41799;SDS011;27468;47.460;19.034;2022-10-16T15:40:44;6.93;;;4.47;;
41799;SDS011;27468;47.460;19.034;2022-10-16T15:43:10;6.75;;;4.75;;
41799;SDS011;27468;47.460;19.034;2022-10-16T15:45:36;7.10;;;4.60;;
41799;SDS011;27468;47.460;19.034;2022-10-16T15:48:02;5.10;;;4.50;;
41799;SDS011;27468;47.460;19.034;2022-10-16T15:50:28;7.43;;;5.03;;
41799;SDS011;27468;47.460;19.034;2022-10-16T15:52:55;7.20;;;4.75;;
41799;SDS011;27468;47.460;19.034;2022-10-16T15:55:20;7.03;;;4.55;;
41799;SDS011;27468;47.460;19.034;2022-10-16T15:57:46;8.73;;;4.90;;
41799;SDS011;27468;47.460;19.034;2022-10-16T16:00:12;7.40;;;5.40;;
41799;SDS011;27468;47.460;19.034;2022-10-16T16:02:40;7.88;;;5.75;;
41799;SDS011;27468;47.460;19.034;2022-10-16T16:05:06;8.60;;;6.38;;
41799;SDS011;27468;47.460;19.034;2022-10-16T16:07:35;9.13;;;6.63;;
41799;SDS011;27468;47.460;19.034;2022-10-16T16:10:03;10.23;;;7.32;;
41799;SDS011;27468;47.460;19.034;2022-10-16T16:12:30;10.07;;;9.05;;
41799;SDS011;27468;47.460;19.034;2022-10-16T16:14:56;13.75;;;12.23;;
41799;SDS011;27468;47.460;19.034;2022-10-16T16:17:21;10.55;;;8.73;;
41799;SDS011;27468;47.460;19.034;2022-10-16T16:19:47;9.45;;;8.30;;
41799;SDS011;27468;47.460;19.034;2022-10-16T16:22:12;11.00;;;9.57;;
41799;SDS011;27468;47.460;19.034;2022-10-16T16:24:38;10.32;;;8.43;;
41799;SDS011;27468;47.460;19.034;2022-10-16T16:27:03;10.82;;;8.40;;
41799;SDS011;27468;47.460;19.034;2022-10-16T16:29:29;11.10;;;8.55;;
41799;SDS011;27468;47.460;19.034;2022-10-16T16:31:54;10.88;;;8.02;;
41799;SDS011;27468;47.460;19.034;2022-10-16T16:34:25;11.48;;;7.70;;
41799;SDS011;27468;47.460;19.034;2022-10-16T16:36:52;12.38;;;8.68;;
41799;SDS011;27468;47.460;19.034;2022-10-16T16:39:18;12.20;;;8.05;;
41799;SDS011;27468;47.460;19.034;2022-10-16T16:41:43;10.05;;;8.40;;
41799;SDS011;27468;47.460;19.034;2022-10-16T16:44:10;11.90;;;8.40;;
41799;SDS011;27468;47.460;19.034;2022-10-16T16:46:36;12.10;;;8.70;;
41799;SDS011;27468;47.460;19.034;2022-10-16T16:49:02;12.50;;;8.10;;
41799;SDS011;27468;47.460;19.034;2022-10-16T16:51:28;13.60;;;8.10;;
41799;SDS011;27468;47.460;19.034;2022-10-16T16:53:54;10.63;;;8.15;;
41799;SDS011;27468;47.460;19.034;2022-10-16T16:56:21;12.52;;;8.00;;
41799;SDS011;27468;47.460;19.034;2022-10-16T16:58:48;11.90;;;8.52;;
41799;SDS011;27468;47.460;19.034;2022-10-16T17:01:14;11.15;;;8.00;;
41799;SDS011;27468;47.460;19.034;2022-10-16T17:03:41;9.68;;;8.18;;